sensor_id;sensor_type;location;lat;lon;timestamp;pressure;altitude;pressure_sealevel;temperature;humidity
49515;BME280;35415;47.870;16.058;2023-04-07T00:01:26;97234.91;;;4.91;42.65
49515;BME280;35415;47.870;16.058;2023-04-07T00:03:55;97284.81;;;5.19;43.09
49515;BME280;35415;47.870;16.058;2023-04-07T00:06:22;97278.81;;;5.23;43.21
49515;BME280;35415;47.870;16.058;2023-04-07T00:08:52;97257.25;;;5.13;42.96
49515;BME280;35415;47.870;16.058;2023-04-07T00:11:19;97281.00;;;5.26;43.22
49515;BME280;35415;47.870;16.058;2023-04-07T00:13:46;97282.88;;;5.26;43.30
49515;BME280;35415;47.870;16.058;2023-04-07T00:16:13;97284.50;;;5.27;43.00
49515;BME280;35415;47.870;16.058;2023-04-07T00:18:41;97281.59;;;5.28;43.18
49515;BME280;35415;47.870;16.058;2023-04-07T00:21:10;97283.22;;;5.29;43.55
49515;BME280;35415;47.870;16.058;2023-04-07T00:23:37;97284.03;;;5.30;43.15
49515;BME280;35415;47.870;16.058;2023-04-07T00:26:04;97272.53;;;5.29;43.47
49515;BME280;35415;47.870;16.058;2023-04-07T00:28:32;97294.22;;;5.33;43.32
49515;BME280;35415;47.870;16.058;2023-04-07T00:30:59;97249.13;;;5.20;43.34
49515;BME280;35415;47.870;16.058;2023-04-07T00:33:26;97257.91;;;5.32;43.22
49515;BME280;35415;47.870;16.058;2023-04-07T00:35:54;97244.03;;;5.18;43.22
49515;BME280;35415;47.870;16.058;2023-04-07T00:38:25;97277.97;;;5.34;42.98
49515;BME280;35415;47.870;16.058;2023-04-07T00:40:56;97265.94;;;5.32;43.26
49515;BME280;35415;47.870;16.058;2023-04-07T00:43:25;97213.69;;;4.96;42.77
49515;BME280;35415;47.870;16.058;2023-04-07T00:45:53;97264.63;;;5.34;42.79
49515;BME280;35415;47.870;16.058;2023-04-07T00:48:23;97258.50;;;5.34;43.31
49515;BME280;35415;47.870;16.058;2023-04-07T00:50:50;97249.34;;;5.30;43.64
49515;BME280;35415;47.870;16.058;2023-04-07T00:53:18;97252.13;;;5.35;43.01
49515;BME280;35415;47.870;16.058;2023-04-07T00:55:47;97245.41;;;5.32;43.32
49515;BME280;35415;47.870;16.058;2023-04-07T00:58:15;97245.72;;;5.36;42.65
49515;BME280;35415;47.870;16.058;2023-04-07T01:00:47;97247.34;;;5.37;42.98
49515;BME280;35415;47.870;16.058;2023-04-07T01:03:19;97247.34;;;5.37;43.06
49515;BME280;35415;47.870;16.058;2023-04-07T01:05:52;97243.88;;;5.36;43.96
49515;BME280;35415;47.870;16.058;2023-04-07T01:08:29;97238.78;;;5.35;42.99
49515;BME280;35415;47.870;16.058;2023-04-07T01:11:05;97209.34;;;5.18;42.78
49515;BME280;35415;47.870;16.058;2023-04-07T01:13:37;97240.53;;;5.41;43.11
49515;BME280;35415;47.870;16.058;2023-04-07T01:16:23;97238.09;;;5.39;42.79
49515;BME280;35415;47.870;16.058;2023-04-07T01:18:54;97229.16;;;5.34;42.54
49515;BME280;35415;47.870;16.058;2023-04-07T01:21:25;97235.06;;;5.48;42.10
49515;BME280;35415;47.870;16.058;2023-04-07T01:24:21;97229.16;;;5.46;42.83
49515;BME280;35415;47.870;16.058;2023-04-07T01:26:59;97227.16;;;5.53;42.29
49515;BME280;35415;47.870;16.058;2023-04-07T01:29:36;97231.78;;;5.57;42.36
49515;BME280;35415;47.870;16.058;2023-04-07T01:32:09;97225.88;;;5.55;42.12
49515;BME280;35415;47.870;16.058;2023-04-07T01:34:37;97217.66;;;5.57;42.19
49515;BME280;35415;47.870;16.058;2023-04-07T01:37:07;97205.81;;;5.53;41.73
49515;BME280;35415;47.870;16.058;2023-04-07T01:39:37;97214.25;;;5.61;41.99
49515;BME280;35415;47.870;16.058;2023-04-07T01:42:05;97210.78;;;5.61;42.10
49515;BME280;35415;47.870;16.058;2023-04-07T01:44:35;97211.69;;;5.66;41.62
49515;BME280;35415;47.870;16.058;2023-04-07T01:47:03;97212.72;;;5.65;41.51
49515;BME280;35415;47.870;16.058;2023-04-07T01:49:33;97203.78;;;5.71;41.86
49515;BME280;35415;47.870;16.058;2023-04-07T01:52:02;97189.53;;;5.66;41.72
49515;BME280;35415;47.870;16.058;2023-04-07T01:54:30;97209.47;;;5.75;41.49
49515;BME280;35415;47.870;16.058;2023-04-07T01:56:58;97169.25;;;5.53;41.21
49515;BME280;35415;47.870;16.058;2023-04-07T01:59:26;97126.44;;;5.31;41.12
49515;BME280;35415;47.870;16.058;2023-04-07T02:01:55;97201.31;;;5.82;41.64
49515;BME280;35415;47.870;16.058;2023-04-07T02:04:27;97207.22;;;5.84;41.17
49515;BME280;35415;47.870;16.058;2023-04-07T02:07:00;97200.97;;;5.90;40.73
49515;BME280;35415;47.870;16.058;2023-04-07T02:09:31;97201.78;;;5.90;40.83
49515;BME280;35415;47.870;16.058;2023-04-07T02:12:01;97192.56;;;5.86;40.78
49515;BME280;35415;47.870;16.058;2023-04-07T02:14:30;97198.88;;;5.92;40.46
49515;BME280;35415;47.870;16.058;2023-04-07T02:17:00;97189.00;;;5.92;40.85
49515;BME280;35415;47.870;16.058;2023-04-07T02:19:29;97205.81;;;5.93;40.78
49515;BME280;35415;47.870;16.058;2023-04-07T02:21:58;97173.56;;;5.83;40.81
49515;BME280;35415;47.870;16.058;2023-04-07T02:24:26;97189.56;;;5.94;40.76
49515;BME280;35415;47.870;16.058;2023-04-07T02:26:53;97181.56;;;5.94;40.39
49515;BME280;35415;47.870;16.058;2023-04-07T02:29:21;97182.13;;;5.96;40.66
49515;BME280;35415;47.870;16.058;2023-04-07T02:31:49;97181.06;;;5.97;40.21
49515;BME280;35415;47.870;16.058;2023-04-07T02:34:18;97180.00;;;5.98;40.42
49515;BME280;35415;47.870;16.058;2023-04-07T02:36:45;97175.47;;;5.99;40.42
49515;BME280;35415;47.870;16.058;2023-04-07T02:39:12;97151.63;;;5.81;40.51
49515;BME280;35415;47.870;16.058;2023-04-07T02:41:39;97178.72;;;6.01;40.07
49515;BME280;35415;47.870;16.058;2023-04-07T02:44:06;97177.91;;;6.00;40.25
49515;BME280;35415;47.870;16.058;2023-04-07T02:46:34;97148.47;;;5.84;40.22
49515;BME280;35415;47.870;16.058;2023-04-07T02:49:01;97165.13;;;6.02;40.48
49515;BME280;35415;47.870;16.058;2023-04-07T02:51:30;97164.06;;;6.03;40.08
49515;BME280;35415;47.870;16.058;2023-04-07T02:53:57;97149.34;;;6.01;40.34
49515;BME280;35415;47.870;16.058;2023-04-07T02:56:25;97152.59;;;6.03;40.26
49515;BME280;35415;47.870;16.058;2023-04-07T02:58:52;97163.25;;;6.03;39.97
49515;BME280;35415;47.870;16.058;2023-04-07T03:01:19;97156.66;;;6.06;40.01
49515;BME280;35415;47.870;16.058;2023-04-07T03:03:47;97150.28;;;6.07;39.90
49515;BME280;35415;47.870;16.058;2023-04-07T03:06:14;97150.03;;;6.08;39.72
49515;BME280;35415;47.870;16.058;2023-04-07T03:08:43;97152.13;;;6.06;40.32
49515;BME280;35415;47.870;16.058;2023-04-07T03:11:11;97146.59;;;5.96;39.58
49515;BME280;35415;47.870;16.058;2023-04-07T03:13:38;97152.44;;;6.10;39.72
49515;BME280;35415;47.870;16.058;2023-04-07T03:16:05;97128.06;;;5.89;39.88
49515;BME280;35415;47.870;16.058;2023-04-07T03:18:33;97149.47;;;6.06;39.71
49515;BME280;35415;47.870;16.058;2023-04-07T03:21:00;97147.00;;;6.04;39.77
49515;BME280;35415;47.870;16.058;2023-04-07T03:23:27;97142.97;;;6.02;40.00
49515;BME280;35415;47.870;16.058;2023-04-07T03:26:00;97140.53;;;6.00;39.79
49515;BME280;35415;47.870;16.058;2023-04-07T03:28:28;97122.91;;;5.88;39.52
49515;BME280;35415;47.870;16.058;2023-04-07T03:30:58;97149.66;;;6.04;40.09
49515;BME280;35415;47.870;16.058;2023-04-07T03:33:25;97135.13;;;5.95;40.14
49515;BME280;35415;47.870;16.058;2023-04-07T03:35:52;97151.31;;;6.06;39.58
49515;BME280;35415;47.870;16.058;2023-04-07T03:38:22;97150.28;;;6.07;39.90
49515;BME280;35415;47.870;16.058;2023-04-07T03:40:50;97114.09;;;5.87;39.89
49515;BME280;35415;47.870;16.058;2023-04-07T03:43:18;97138.53;;;6.08;39.34
49515;BME280;35415;47.870;16.058;2023-04-07T03:45:45;97119.22;;;5.89;39.68
49515;BME280;35415;47.870;16.058;2023-04-07T03:48:13;97154.19;;;6.04;39.41
49515;BME280;35415;47.870;16.058;2023-04-07T03:50:41;97150.50;;;6.05;39.45
49515;BME280;35415;47.870;16.058;2023-04-07T03:53:08;97139.22;;;6.03;39.60
49515;BME280;35415;47.870;16.058;2023-04-07T03:55:36;97130.09;;;5.99;39.48
49515;BME280;35415;47.870;16.058;2023-04-07T03:58:04;97140.41;;;6.07;38.90
49515;BME280;35415;47.870;16.058;2023-04-07T04:00:33;97141.19;;;6.08;39.34
49515;BME280;35415;47.870;16.058;2023-04-07T04:03:00;97139.34;;;6.08;39.02
49515;BME280;35415;47.870;16.058;2023-04-07T04:05:28;97145.16;;;6.05;39.12
49515;BME280;35415;47.870;16.058;2023-04-07T04:07:56;97116.22;;;5.85;39.38
49515;BME280;35415;47.870;16.058;2023-04-07T04:10:23;97146.44;;;6.02;39.15
49515;BME280;35415;47.870;16.058;2023-04-07T04:12:51;97149.34;;;6.01;39.69
49515;BME280;35415;47.870;16.058;2023-04-07T04:15:19;97143.44;;;5.99;39.55
49515;BME280;35415;47.870;16.058;2023-04-07T04:17:47;97140.44;;;5.95;39.72
49515;BME280;35415;47.870;16.058;2023-04-07T04:20:14;97149.59;;;5.99;40.18
49515;BME280;35415;47.870;16.058;2023-04-07T04:22:42;97149.03;;;5.97;40.09
49515;BME280;35415;47.870;16.058;2023-04-07T04:25:09;97107.13;;;5.69;40.27
49515;BME280;35415;47.870;16.058;2023-04-07T04:27:36;97141.84;;;5.86;40.18
49515;BME280;35415;47.870;16.058;2023-04-07T04:30:05;97149.41;;;5.89;40.21
49515;BME280;35415;47.870;16.058;2023-04-07T04:32:32;97154.03;;;5.94;39.80
49515;BME280;35415;47.870;16.058;2023-04-07T04:35:01;97114.75;;;5.78;40.29
49515;BME280;35415;47.870;16.058;2023-04-07T04:37:28;97154.75;;;5.89;40.46
49515;BME280;35415;47.870;16.058;2023-04-07T04:39:56;97154.84;;;5.94;40.11
49515;BME280;35415;47.870;16.058;2023-04-07T04:42:24;97147.91;;;5.93;40.59
49515;BME280;35415;47.870;16.058;2023-04-07T04:44:52;97157.75;;;5.93;40.55
49515;BME280;35415;47.870;16.058;2023-04-07T04:47:19;97150.81;;;5.92;40.56
49515;BME280;35415;47.870;16.058;2023-04-07T04:49:47;97153.47;;;5.92;40.79
49515;BME280;35415;47.870;16.058;2023-04-07T04:52:16;97124.38;;;5.79;40.47
49515;BME280;35415;47.870;16.058;2023-04-07T04:54:43;97098.97;;;5.59;40.23
49515;BME280;35415;47.870;16.058;2023-04-07T04:57:11;97159.63;;;5.92;40.43
49515;BME280;35415;47.870;16.058;2023-04-07T04:59:38;97129.88;;;5.72;40.59
49515;BME280;35415;47.870;16.058;2023-04-07T05:02:07;97155.34;;;5.91;40.23
49515;BME280;35415;47.870;16.058;2023-04-07T05:04:34;97161.25;;;5.93;40.71
49515;BME280;35415;47.870;16.058;2023-04-07T05:07:01;97148.72;;;5.94;40.15
49515;BME280;35415;47.870;16.058;2023-04-07T05:09:32;97149.75;;;5.93;40.71
49515;BME280;35415;47.870;16.058;2023-04-07T05:12:01;97147.66;;;5.95;42.08
49515;BME280;35415;47.870;16.058;2023-04-07T05:14:28;97159.13;;;5.95;41.17
49515;BME280;35415;47.870;16.058;2023-04-07T05:16:55;97160.75;;;5.96;40.51
49515;BME280;35415;47.870;16.058;2023-04-07T05:19:23;97152.75;;;5.96;40.28
49515;BME280;35415;47.870;16.058;2023-04-07T05:21:51;97160.50;;;5.98;40.59
49515;BME280;35415;47.870;16.058;2023-04-07T05:24:22;97162.13;;;5.99;40.87
49515;BME280;35415;47.870;16.058;2023-04-07T05:26:52;97154.94;;;5.99;40.57
49515;BME280;35415;47.870;16.058;2023-04-07T05:29:19;97155.75;;;6.00;41.10
49515;BME280;35415;47.870;16.058;2023-04-07T05:31:46;97151.78;;;6.02;40.80
49515;BME280;35415;47.870;16.058;2023-04-07T05:34:13;97148.06;;;6.03;40.36
49515;BME280;35415;47.870;16.058;2023-04-07T05:36:41;97137.88;;;6.00;40.86
49515;BME280;35415;47.870;16.058;2023-04-07T05:39:08;97148.41;;;6.07;40.88
49515;BME280;35415;47.870;16.058;2023-04-07T05:41:35;97147.91;;;6.10;40.74
49515;BME280;35415;47.870;16.058;2023-04-07T05:44:04;97148.72;;;6.11;40.72
49515;BME280;35415;47.870;16.058;2023-04-07T05:46:32;97154.38;;;6.14;40.49
49515;BME280;35415;47.870;16.058;2023-04-07T05:48:59;97156.31;;;6.19;40.43
49515;BME280;35415;47.870;16.058;2023-04-07T05:51:26;97153.41;;;6.20;40.21
49515;BME280;35415;47.870;16.058;2023-04-07T05:53:53;97151.09;;;6.24;40.17
49515;BME280;35415;47.870;16.058;2023-04-07T05:56:21;97150.03;;;6.25;39.91
49515;BME280;35415;47.870;16.058;2023-04-07T05:58:48;97148.16;;;6.25;39.98
49515;BME280;35415;47.870;16.058;2023-04-07T06:01:17;97149.84;;;6.31;40.44
49515;BME280;35415;47.870;16.058;2023-04-07T06:03:44;97157.94;;;6.37;40.08
49515;BME280;35415;47.870;16.058;2023-04-07T06:06:11;97149.13;;;6.36;40.26
49515;BME280;35415;47.870;16.058;2023-04-07T06:08:39;97148.72;;;6.44;39.60
49515;BME280;35415;47.870;16.058;2023-04-07T06:11:06;97154.16;;;6.49;39.62
49515;BME280;35415;47.870;16.058;2023-04-07T06:13:33;97150.66;;;6.49;39.62
49515;BME280;35415;47.870;16.058;2023-04-07T06:16:00;97130.84;;;6.45;39.26
49515;BME280;35415;47.870;16.058;2023-04-07T06:18:29;97126.81;;;6.42;39.23
49515;BME280;35415;47.870;16.058;2023-04-07T06:20:58;97090.53;;;6.29;39.28
49515;BME280;35415;47.870;16.058;2023-04-07T06:23:26;97158.66;;;6.66;39.35
49515;BME280;35415;47.870;16.058;2023-04-07T06:25:58;97153.72;;;6.74;38.78
49515;BME280;35415;47.870;16.058;2023-04-07T06:28:25;97163.44;;;6.80;38.77
49515;BME280;35415;47.870;16.058;2023-04-07T06:30:52;97158.09;;;6.80;38.79
49515;BME280;35415;47.870;16.058;2023-04-07T06:33:22;97126.66;;;6.71;38.74
49515;BME280;35415;47.870;16.058;2023-04-07T06:35:53;97146.41;;;6.86;38.69
49515;BME280;35415;47.870;16.058;2023-04-07T06:38:23;97147.03;;;6.93;38.98
49515;BME280;35415;47.870;16.058;2023-04-07T06:40:50;97145.44;;;6.92;38.42
49515;BME280;35415;47.870;16.058;2023-04-07T06:43:17;97168.00;;;7.02;38.55
49515;BME280;35415;47.870;16.058;2023-04-07T06:45:45;97144.69;;;6.97;38.62
49515;BME280;35415;47.870;16.058;2023-04-07T06:48:12;97164.34;;;7.08;38.27
49515;BME280;35415;47.870;16.058;2023-04-07T06:50:39;97167.91;;;7.13;37.79
49515;BME280;35415;47.870;16.058;2023-04-07T06:53:08;97165.28;;;7.18;37.46
49515;BME280;35415;47.870;16.058;2023-04-07T06:55:36;97172.50;;;7.18;38.13
49515;BME280;35415;47.870;16.058;2023-04-07T06:58:04;97101.09;;;6.75;38.00
49515;BME280;35415;47.870;16.058;2023-04-07T07:00:31;97130.81;;;7.00;37.68
49515;BME280;35415;47.870;16.058;2023-04-07T07:03:00;97162.84;;;7.17;37.73
49515;BME280;35415;47.870;16.058;2023-04-07T07:05:28;97119.00;;;6.96;37.58
49515;BME280;35415;47.870;16.058;2023-04-07T07:07:55;97154.47;;;7.30;37.24
49515;BME280;35415;47.870;16.058;2023-04-07T07:10:25;97156.63;;;7.33;37.68
49515;BME280;35415;47.870;16.058;2023-04-07T07:12:52;97176.19;;;7.34;37.25
49515;BME280;35415;47.870;16.058;2023-04-07T07:15:19;97139.28;;;7.14;37.90
49515;BME280;35415;47.870;16.058;2023-04-07T07:17:46;97088.31;;;6.82;37.89
49515;BME280;35415;47.870;16.058;2023-04-07T07:20:13;97149.88;;;7.26;37.43
49515;BME280;35415;47.870;16.058;2023-04-07T07:22:41;97150.22;;;7.34;37.48
49515;BME280;35415;47.870;16.058;2023-04-07T07:25:10;97163.31;;;7.31;37.63
49515;BME280;35415;47.870;16.058;2023-04-07T07:27:41;97180.84;;;7.43;37.25
49515;BME280;35415;47.870;16.058;2023-04-07T07:30:09;97154.00;;;7.38;37.33
49515;BME280;35415;47.870;16.058;2023-04-07T07:32:36;97042.94;;;6.65;37.42
49515;BME280;35415;47.870;16.058;2023-04-07T07:35:04;97086.09;;;6.96;37.36
49515;BME280;35415;47.870;16.058;2023-04-07T07:37:32;97180.50;;;7.57;37.15
49515;BME280;35415;47.870;16.058;2023-04-07T07:40:09;97107.13;;;7.09;37.16
49515;BME280;35415;47.870;16.058;2023-04-07T07:42:37;97095.88;;;7.07;37.41
49515;BME280;35415;47.870;16.058;2023-04-07T07:45:08;97125.91;;;7.36;37.27
49515;BME280;35415;47.870;16.058;2023-04-07T07:47:42;97142.38;;;7.49;37.29
49515;BME280;35415;47.870;16.058;2023-04-07T07:56:15;97145.09;;;7.54;36.90
49515;BME280;35415;47.870;16.058;2023-04-07T08:01:46;97052.47;;;7.00;36.93
49515;BME280;35415;47.870;16.058;2023-04-07T08:04:14;97090.13;;;7.20;36.49
49515;BME280;35415;47.870;16.058;2023-04-07T08:06:41;97163.03;;;7.76;36.72
49515;BME280;35415;47.870;16.058;2023-04-07T08:09:09;97158.63;;;7.65;36.48
49515;BME280;35415;47.870;16.058;2023-04-07T08:11:36;97101.38;;;7.44;36.48
49515;BME280;35415;47.870;16.058;2023-04-07T08:14:04;97189.75;;;7.98;36.83
49515;BME280;35415;47.870;16.058;2023-04-07T08:16:33;97103.31;;;7.48;36.71
49515;BME280;35415;47.870;16.058;2023-04-07T08:19:08;97049.09;;;7.09;36.38
49515;BME280;35415;47.870;16.058;2023-04-07T08:21:36;97179.97;;;8.08;36.11
49515;BME280;35415;47.870;16.058;2023-04-07T08:24:07;97077.06;;;7.45;36.39
49515;BME280;35415;47.870;16.058;2023-04-07T08:26:35;97124.63;;;7.92;36.25
49515;BME280;35415;47.870;16.058;2023-04-07T08:29:11;97177.44;;;8.24;35.81
49515;BME280;35415;47.870;16.058;2023-04-07T08:31:41;97112.72;;;7.78;35.74
49515;BME280;35415;47.870;16.058;2023-04-07T08:37:08;97112.84;;;7.93;35.49
49515;BME280;35415;47.870;16.058;2023-04-07T08:39:35;97132.31;;;8.10;35.94
49515;BME280;35415;47.870;16.058;2023-04-07T08:42:07;97148.69;;;8.19;36.02
49515;BME280;35415;47.870;16.058;2023-04-07T08:44:39;97145.50;;;8.22;35.79
49515;BME280;35415;47.870;16.058;2023-04-07T08:47:10;97148.19;;;8.22;35.58
49515;BME280;35415;47.870;16.058;2023-04-07T08:49:39;97025.28;;;7.62;35.55
49515;BME280;35415;47.870;16.058;2023-04-07T08:52:14;97156.28;;;8.27;35.62
49515;BME280;35415;47.870;16.058;2023-04-07T08:54:42;97114.22;;;8.28;35.58
49515;BME280;35415;47.870;16.058;2023-04-07T08:57:12;97104.59;;;8.32;35.54
49515;BME280;35415;47.870;16.058;2023-04-07T08:59:43;97152.88;;;8.69;35.03
49515;BME280;35415;47.870;16.058;2023-04-07T09:02:14;97158.78;;;8.71;35.59
49515;BME280;35415;47.870;16.058;2023-04-07T09:04:43;97159.38;;;8.78;35.82
49515;BME280;35415;47.870;16.058;2023-04-07T09:07:18;97033.50;;;8.19;35.39
49515;BME280;35415;47.870;16.058;2023-04-07T09:09:48;97032.50;;;8.30;35.52
49515;BME280;35415;47.870;16.058;2023-04-07T09:12:17;97032.63;;;8.40;35.28
49515;BME280;35415;47.870;16.058;2023-04-07T09:14:46;97070.00;;;8.67;35.21
49515;BME280;35415;47.870;16.058;2023-04-07T09:17:14;97088.88;;;8.88;34.62
49515;BME280;35415;47.870;16.058;2023-04-07T09:19:41;97084.13;;;8.95;34.37
49515;BME280;35415;47.870;16.058;2023-04-07T09:22:08;97130.63;;;9.21;34.79
49515;BME280;35415;47.870;16.058;2023-04-07T09:24:42;97061.81;;;8.89;34.45
49515;BME280;35415;47.870;16.058;2023-04-07T09:27:11;97045.97;;;8.88;34.13
49515;BME280;35415;47.870;16.058;2023-04-07T09:29:41;97021.56;;;8.84;33.88
49515;BME280;35415;47.870;16.058;2023-04-07T09:32:11;97067.28;;;9.15;33.91
49515;BME280;35415;47.870;16.058;2023-04-07T09:34:40;97130.00;;;9.71;34.57
49515;BME280;35415;47.870;16.058;2023-04-07T09:37:34;97137.56;;;9.84;34.14
49515;BME280;35415;47.870;16.058;2023-04-07T09:40:04;97087.03;;;9.61;33.40
49515;BME280;35415;47.870;16.058;2023-04-07T09:42:32;97124.69;;;10.02;33.41
49515;BME280;35415;47.870;16.058;2023-04-07T09:45:02;97122.53;;;9.99;33.79
49515;BME280;35415;47.870;16.058;2023-04-07T09:47:31;97123.63;;;10.18;33.29
49515;BME280;35415;47.870;16.058;2023-04-07T09:50:01;97095.41;;;10.05;33.09
49515;BME280;35415;47.870;16.058;2023-04-07T09:58:46;96999.75;;;9.63;33.43
49515;BME280;35415;47.870;16.058;2023-04-07T10:01:19;97122.84;;;10.58;33.21
49515;BME280;35415;47.870;16.058;2023-04-07T10:03:47;97022.34;;;9.93;32.70
49515;BME280;35415;47.870;16.058;2023-04-07T10:06:18;97136.03;;;10.65;32.25
49515;BME280;35415;47.870;16.058;2023-04-07T10:08:46;97071.78;;;10.38;32.50
49515;BME280;35415;47.870;16.058;2023-04-07T10:11:14;97058.09;;;10.29;32.47
49515;BME280;35415;47.870;16.058;2023-04-07T10:13:44;97031.16;;;10.19;32.33
49515;BME280;35415;47.870;16.058;2023-04-07T10:16:12;97106.94;;;10.72;32.50
49515;BME280;35415;47.870;16.058;2023-04-07T10:18:40;97092.72;;;10.66;32.26
49515;BME280;35415;47.870;16.058;2023-04-07T10:21:07;97067.72;;;10.50;31.96
49515;BME280;35415;47.870;16.058;2023-04-07T10:23:47;97066.91;;;10.50;32.08
49515;BME280;35415;47.870;16.058;2023-04-07T10:26:20;97032.28;;;10.28;32.15
49515;BME280;35415;47.870;16.058;2023-04-07T10:28:56;97087.34;;;10.66;32.11
49515;BME280;35415;47.870;16.058;2023-04-07T10:31:25;97039.78;;;10.41;32.23
49515;BME280;35415;47.870;16.058;2023-04-07T10:33:53;97114.75;;;10.78;31.89
49515;BME280;35415;47.870;16.058;2023-04-07T10:36:21;97069.88;;;10.53;31.75
49515;BME280;35415;47.870;16.058;2023-04-07T10:39:19;97054.03;;;10.42;32.25
49515;BME280;35415;47.870;16.058;2023-04-07T10:41:46;97047.03;;;10.51;31.79
49515;BME280;35415;47.870;16.058;2023-04-07T10:44:45;97101.56;;;10.82;32.25
49515;BME280;35415;47.870;16.058;2023-04-07T10:47:13;97073.09;;;10.61;31.50
49515;BME280;35415;47.870;16.058;2023-04-07T10:50:14;97099.69;;;10.82;32.05
49515;BME280;35415;47.870;16.058;2023-04-07T10:52:46;97087.03;;;10.73;32.11
49515;BME280;35415;47.870;16.058;2023-04-07T10:55:29;97105.59;;;10.84;32.15
49515;BME280;35415;47.870;16.058;2023-04-07T10:58:20;97081.38;;;10.74;31.99
49515;BME280;35415;47.870;16.058;2023-04-07T11:01:18;97112.03;;;10.89;31.86
49515;BME280;35415;47.870;16.058;2023-04-07T11:04:02;97101.03;;;10.80;31.94
49515;BME280;35415;47.870;16.058;2023-04-07T11:06:31;97101.84;;;10.80;31.79
49515;BME280;35415;47.870;16.058;2023-04-07T11:08:59;97097.53;;;10.79;32.08
49515;BME280;35415;47.870;16.058;2023-04-07T11:11:39;97108.03;;;10.81;31.91
49515;BME280;35415;47.870;16.058;2023-04-07T11:14:07;97105.06;;;10.77;31.96
49515;BME280;35415;47.870;16.058;2023-04-07T11:16:40;97065.28;;;10.54;31.75
49515;BME280;35415;47.870;16.058;2023-04-07T11:19:08;97089.25;;;10.61;32.07
49515;BME280;35415;47.870;16.058;2023-04-07T11:21:35;97110.97;;;10.74;32.11
49515;BME280;35415;47.870;16.058;2023-04-07T11:24:03;97067.75;;;10.45;32.18
49515;BME280;35415;47.870;16.058;2023-04-07T11:26:36;97109.63;;;10.72;32.26
49515;BME280;35415;47.870;16.058;2023-04-07T11:29:04;97105.34;;;10.71;32.44
49515;BME280;35415;47.870;16.058;2023-04-07T11:31:31;97074.72;;;10.51;32.32
49515;BME280;35415;47.870;16.058;2023-04-07T11:34:01;97047.56;;;10.38;32.29
49515;BME280;35415;47.870;16.058;2023-04-07T11:36:30;97103.19;;;10.73;32.52
49515;BME280;35415;47.870;16.058;2023-04-07T11:38:59;97100.53;;;10.63;32.43
49515;BME280;35415;47.870;16.058;2023-04-07T11:41:28;97092.72;;;10.66;32.68
49515;BME280;35415;47.870;16.058;2023-04-07T11:44:05;97099.69;;;10.67;32.59
49515;BME280;35415;47.870;16.058;2023-04-07T11:46:36;97075.00;;;10.50;32.96
49515;BME280;35415;47.870;16.058;2023-04-07T11:51:58;97069.06;;;10.53;33.30
49515;BME280;35415;47.870;16.058;2023-04-07T11:54:26;97077.38;;;10.57;33.45
49515;BME280;35415;47.870;16.058;2023-04-07T11:56:57;97066.38;;;10.53;33.30
49515;BME280;35415;47.870;16.058;2023-04-07T11:59:25;97052.13;;;10.47;33.34
49515;BME280;35415;47.870;16.058;2023-04-07T12:01:53;97099.41;;;10.74;33.22
49515;BME280;35415;47.870;16.058;2023-04-07T12:04:22;97074.19;;;10.49;33.25
49515;BME280;35415;47.870;16.058;2023-04-07T12:06:52;97030.41;;;10.29;33.59
49515;BME280;35415;47.870;16.058;2023-04-07T12:09:30;97004.84;;;10.21;33.13
49515;BME280;35415;47.870;16.058;2023-04-07T12:12:01;97042.22;;;10.33;33.21
49515;BME280;35415;47.870;16.058;2023-04-07T12:14:30;97089.22;;;10.66;33.26
49515;BME280;35415;47.870;16.058;2023-04-07T12:16:58;97055.88;;;10.51;33.51
49515;BME280;35415;47.870;16.058;2023-04-07T12:19:29;97089.72;;;10.73;33.74
49515;BME280;35415;47.870;16.058;2023-04-07T12:22:04;97097.00;;;10.72;33.99
49515;BME280;35415;47.870;16.058;2023-04-07T12:24:36;97059.38;;;10.57;33.95
49515;BME280;35415;47.870;16.058;2023-04-07T12:27:07;97022.03;;;10.35;34.32
49515;BME280;35415;47.870;16.058;2023-04-07T12:29:48;97037.06;;;10.51;33.94
49515;BME280;35415;47.870;16.058;2023-04-07T12:32:15;97024.16;;;10.53;34.23
49515;BME280;35415;47.870;16.058;2023-04-07T12:34:44;96978.78;;;10.27;33.96
49515;BME280;35415;47.870;16.058;2023-04-07T12:37:15;97015.03;;;10.44;33.95
49515;BME280;35415;47.870;16.058;2023-04-07T12:39:59;97058.03;;;10.60;33.94
49515;BME280;35415;47.870;16.058;2023-04-07T12:42:26;97052.13;;;10.63;33.93
49515;BME280;35415;47.870;16.058;2023-04-07T12:44:55;97030.59;;;10.52;33.94
49515;BME280;35415;47.870;16.058;2023-04-07T12:47:23;97042.16;;;10.53;34.08
49515;BME280;35415;47.870;16.058;2023-04-07T12:49:50;97007.00;;;10.24;34.03
49515;BME280;35415;47.870;16.058;2023-04-07T12:52:18;97037.09;;;10.46;34.37
49515;BME280;35415;47.870;16.058;2023-04-07T12:54:47;97080.59;;;10.69;34.25
49515;BME280;35415;47.870;16.058;2023-04-07T12:57:14;97078.47;;;10.66;34.38
49515;BME280;35415;47.870;16.058;2023-04-07T12:59:42;97105.03;;;10.88;34.92
49515;BME280;35415;47.870;16.058;2023-04-07T13:02:09;97052.41;;;10.51;35.18
49515;BME280;35415;47.870;16.058;2023-04-07T13:04:39;97078.47;;;10.66;35.04
49515;BME280;35415;47.870;16.058;2023-04-07T13:07:08;97025.25;;;10.37;35.17
49515;BME280;35415;47.870;16.058;2023-04-07T13:09:38;97033.09;;;10.29;35.54
49515;BME280;35415;47.870;16.058;2023-04-07T13:12:11;97027.69;;;10.23;35.83
49515;BME280;35415;47.870;16.058;2023-04-07T13:14:40;97062.63;;;10.44;35.65
49515;BME280;35415;47.870;16.058;2023-04-07T13:17:08;97037.94;;;10.27;36.15
49515;BME280;35415;47.870;16.058;2023-04-07T13:19:36;97034.97;;;10.28;35.98
49515;BME280;35415;47.870;16.058;2023-04-07T13:22:07;96994.09;;;10.11;35.79
49515;BME280;35415;47.870;16.058;2023-04-07T13:24:34;96995.97;;;10.15;35.98
49515;BME280;35415;47.870;16.058;2023-04-07T13:27:02;97046.75;;;10.52;35.90
49515;BME280;35415;47.870;16.058;2023-04-07T13:29:32;97010.19;;;10.36;35.80
49515;BME280;35415;47.870;16.058;2023-04-07T13:32:08;97057.47;;;10.68;36.05